Time;durP1;ratioP1;P1;durP2;ratioP2;P2;SDS_P1;SDS_P2;PMS_P1;PMS_P2;Temp;Humidity;BMP_temperature;BMP_pressure;BME280_temperature;BME280_humidity;BME280_pressure;Samples;Min_cycle;Max_cycle;Signal;HPM_P1;HPM_P2
2023/07/05 00:01:24;;;;;;;4.55;0.85;;;16.00;99.90;;;15.62;100.00;97385.25;5046302;28;20045;-78
2023/07/05 00:03:51;;;;;;;6.32;1.77;;;16.00;99.90;;;15.67;100.00;97386.63;5045993;28;20102;-77
2023/07/05 00:06:18;;;;;;;2.97;1.48;;;16.10;99.90;;;15.66;100.00;97389.34;5047646;28;20464;-78
2023/07/05 00:08:45;;;;;;;3.50;1.30;;;16.10;99.90;;;15.69;100.00;97397.84;5045040;28;20045;-78
2023/07/05 00:11:13;;;;;;;5.30;1.27;;;16.10;99.90;;;15.67;100.00;97393.66;5047604;28;20424;-78
2023/07/05 00:13:40;;;;;;;3.63;1.15;;;16.20;99.90;;;15.69;100.00;97379.53;5045439;28;20130;-77
2023/07/05 00:16:11;;;;;;;2.10;1.13;;;16.20;99.90;;;15.68;100.00;97390.09;5029451;28;20052;-78
2023/07/05 00:18:40;;;;;;;3.13;1.10;;;16.20;99.90;;;15.68;100.00;97371.75;5043824;28;20073;-78
2023/07/05 00:21:10;;;;;;;7.38;1.48;;;16.20;99.90;;;15.75;100.00;97374.84;5046253;28;20045;-77
2023/07/05 00:23:45;;;;;;;9.35;1.63;;;16.20;99.90;;;15.71;100.00;97368.97;5044943;28;20098;-77
2023/07/05 00:26:12;;;;;;;6.38;1.70;;;16.20;99.90;;;15.73;100.00;97364.47;5045172;28;20049;-77
2023/07/05 00:28:39;;;;;;;3.30;1.50;;;16.20;99.90;;;15.80;100.00;97360.50;5045774;28;20052;-79
2023/07/05 00:31:07;;;;;;;3.08;1.45;;;16.30;99.90;;;15.82;100.00;97356.00;5045801;28;20056;-76
2023/07/05 00:33:34;;;;;;;3.38;1.30;;;16.30;99.90;;;15.80;100.00;97351.81;5040884;28;20052;-78
2023/07/05 00:36:01;;;;;;;2.95;1.30;;;16.30;99.90;;;15.96;100.00;97344.59;5032576;28;20053;-76
2023/07/05 00:38:29;;;;;;;2.65;1.27;;;16.30;99.90;;;15.93;100.00;97349.22;5026028;28;20061;-79
2023/07/05 00:40:56;;;;;;;3.47;1.65;;;16.40;99.90;;;15.94;100.00;97337.78;5046860;28;20442;-78
2023/07/05 00:43:26;;;;;;;3.42;1.27;;;16.40;99.90;;;15.99;100.00;97340.97;5046877;28;20139;-77
2023/07/05 00:46:00;;;;;;;5.15;1.73;;;16.40;99.90;;;16.02;100.00;97346.81;5029650;28;20060;-79
2023/07/05 00:48:36;;;;;;;3.97;1.20;;;16.50;99.90;;;16.08;100.00;97341.16;5042893;28;20151;-77
2023/07/05 00:51:14;;;;;;;2.58;1.10;;;16.50;99.90;;;16.07;100.00;97331.63;5045516;28;20049;-79
2023/07/05 00:53:41;;;;;;;3.97;1.55;;;16.50;99.90;;;16.13;100.00;97338.22;5047233;28;20509;-79
2023/07/05 00:56:41;;;;;;;4.53;1.38;;;16.60;99.90;;;16.14;100.00;97332.03;5044686;28;20103;-79
2023/07/05 00:59:13;;;;;;;2.58;1.52;;;16.60;99.90;;;16.20;100.00;97330.78;4999269;28;20055;-79
2023/07/05 01:01:41;;;;;;;3.92;1.98;;;16.60;99.90;;;16.19;100.00;97332.53;5059567;28;20052;-77
2023/07/05 01:04:32;;;;;;;5.30;1.45;;;16.60;99.90;;;16.22;100.00;97332.34;5032168;28;20052;-78
2023/07/05 01:07:00;;;;;;;7.15;1.70;;;16.60;99.90;;;16.26;100.00;97332.97;5042379;28;20466;-77
2023/07/05 01:09:29;;;;;;;7.25;1.67;;;16.70;99.90;;;16.29;100.00;97330.97;5030657;28;20096;-78
2023/07/05 01:12:29;;;;;;;5.18;1.90;;;16.70;99.90;;;16.24;100.00;97330.47;5047634;28;20048;-79
2023/07/05 01:15:10;;;;;;;6.50;1.55;;;16.70;99.90;;;16.26;100.00;97325.97;5046485;28;20424;-78
2023/07/05 01:18:01;;;;;;;3.97;1.73;;;16.80;99.90;;;16.33;100.00;97328.13;5043739;28;20049;-79
2023/07/05 01:20:55;;;;;;;3.60;1.73;;;16.80;99.90;;;16.32;100.00;97324.69;5049980;28;20053;-78
2023/07/05 01:23:50;;;;;;;4.40;1.63;;;16.70;99.90;;;16.34;100.00;97325.41;5046858;28;20110;-77
2023/07/05 01:26:30;;;;;;;2.85;1.70;;;16.80;99.90;;;16.32;100.00;97322.06;5050119;28;20186;-79
2023/07/05 01:29:41;;;;;;;3.53;1.42;;;16.80;99.90;;;16.37;100.00;97321.75;5030294;28;20103;-78
2023/07/05 01:32:29;;;;;;;2.97;1.33;;;16.80;99.90;;;16.37;100.00;97316.50;5031847;28;20053;-80
2023/07/05 01:35:05;;;;;;;3.50;1.58;;;16.80;99.90;;;16.35;100.00;97319.22;5047752;28;20053;-79
2023/07/05 01:37:36;;;;;;;3.13;1.58;;;16.80;99.90;;;16.35;100.00;97318.38;5034103;28;20049;-79
2023/07/05 01:40:30;;;;;;;3.67;1.70;;;16.80;99.90;;;16.37;100.00;97313.88;5048793;28;20079;-79
2023/07/05 01:43:11;;;;;;;6.75;1.70;;;16.80;99.90;;;16.37;100.00;97319.94;5025687;28;20052;-78
2023/07/05 01:45:53;;;;;;;4.57;1.48;;;16.90;99.90;;;16.41;100.00;97315.34;5046746;28;20053;-78
2023/07/05 01:48:31;;;;;;;;;;;16.90;99.90;;;16.47;100.00;97301.81;5044965;28;20094;-78
2023/07/05 01:51:23;;;;;;;4.38;1.30;;;16.90;99.90;;;16.45;100.00;97309.78;5042729;28;19979;-78
2023/07/05 01:54:34;;;;;;;4.22;1.70;;;16.90;99.90;;;16.44;100.00;97302.03;5048643;28;20051;-78
2023/07/05 01:57:14;;;;;;;3.95;1.40;;;16.90;99.90;;;16.48;100.00;97298.25;5041964;28;20102;-79
2023/07/05 01:59:56;;;;;;;4.55;2.05;;;17.00;99.90;;;16.57;100.00;97294.97;5042676;28;20053;-78
2023/07/05 02:02:37;;;;;;;2.47;1.30;;;17.00;99.90;;;16.51;100.00;97298.88;5031710;28;20108;-78
2023/07/05 02:05:07;;;;;;;5.43;1.80;;;17.00;99.90;;;16.49;100.00;97303.38;5047352;28;20057;-78
2023/07/05 02:07:35;;;;;;;4.03;1.67;;;17.00;99.90;;;16.50;100.00;97296.34;5049575;28;20052;-78
2023/07/05 02:10:03;;;;;;;3.15;1.50;;;17.00;99.90;;;16.48;100.00;97285.16;5031130;28;20044;-78
2023/07/05 02:12:30;;;;;;;8.13;1.60;;;17.00;99.90;;;16.49;100.00;97281.59;5052836;28;20053;-78
2023/07/05 02:14:57;;;;;;;3.33;1.30;;;17.00;99.90;;;16.47;100.00;97276.47;5049593;28;20103;-78
2023/07/05 02:17:25;;;;;;;6.43;1.90;;;17.00;99.90;;;16.48;100.00;97282.53;5049260;28;20057;-78
2023/07/05 02:19:52;;;;;;;5.70;1.40;;;17.00;99.90;;;16.46;100.00;97279.19;5051935;28;20505;-78
2023/07/05 02:22:20;;;;;;;3.88;1.48;;;17.00;99.90;;;16.45;100.00;97267.03;5048054;28;20055;-77
2023/07/05 02:24:51;;;;;;;3.40;1.65;;;16.90;99.90;;;16.52;100.00;97269.09;5053555;28;20129;-78
2023/07/05 02:27:19;;;;;;;3.73;1.37;;;17.00;99.90;;;16.52;100.00;97265.66;5052643;28;20049;-78
2023/07/05 02:29:46;;;;;;;3.92;1.33;;;17.00;99.90;;;16.54;100.00;97261.13;5049801;28;20472;-78
2023/07/05 02:32:13;;;;;;;15.30;1.65;;;17.00;99.90;;;16.47;100.00;97254.66;5051433;28;20049;-79
2023/07/05 02:34:42;;;;;;;4.57;1.25;;;17.00;99.90;;;16.46;100.00;97247.75;5033602;28;20456;-78
2023/07/05 02:37:11;;;;;;;2.92;1.30;;;16.90;99.90;;;16.56;100.00;97253.16;5051066;28;20045;-78
2023/07/05 02:39:38;;;;;;;7.50;1.27;;;16.90;99.90;;;16.54;100.00;97248.03;5033283;28;20056;-78
2023/07/05 02:42:06;;;;;;;4.88;1.80;;;17.00;99.90;;;16.52;100.00;97247.31;5049978;28;20063;-78
2023/07/05 02:44:34;;;;;;;3.10;1.40;;;17.00;99.90;;;16.52;100.00;97257.78;5052912;28;20041;-78
2023/07/05 02:47:04;;;;;;;3.90;1.10;;;17.00;99.90;;;16.56;100.00;97256.63;5050291;28;20131;-78
2023/07/05 02:49:31;;;;;;;3.42;1.30;;;17.00;99.90;;;16.61;100.00;97267.59;5041270;28;20072;-78
2023/07/05 02:51:59;;;;;;;4.80;1.48;;;17.00;99.90;;;16.64;100.00;97266.53;5047506;28;20504;-77
2023/07/05 02:54:26;;;;;;;4.05;1.38;;;17.00;99.90;;;16.62;100.00;97256.16;5049869;28;20053;-77
2023/07/05 02:56:54;;;;;;;6.93;1.35;;;17.00;99.90;;;16.64;100.00;97256.06;5048207;28;20045;-78
2023/07/05 02:59:22;;;;;;;5.00;1.42;;;17.00;99.90;;;16.63;100.00;97260.47;5052732;28;20044;-77
2023/07/05 03:01:49;;;;;;;2.75;1.13;;;17.00;99.90;;;16.63;100.00;97257.03;5049268;28;20049;-78
2023/07/05 03:04:16;;;;;;;5.00;1.40;;;17.00;99.90;;;16.58;100.00;97240.78;5048444;28;20049;-78
2023/07/05 03:06:44;;;;;;;4.18;1.20;;;17.00;99.90;;;16.48;100.00;97238.00;5048940;28;20052;-78
2023/07/05 03:09:12;;;;;;;6.10;1.35;;;16.90;99.90;;;16.49;100.00;97239.69;5048784;28;20154;-78
2023/07/05 03:11:39;;;;;;;3.50;1.25;;;16.90;99.90;;;16.40;100.00;97248.16;5050819;28;20053;-78
2023/07/05 03:14:06;;;;;;;3.72;1.25;;;16.90;99.90;;;16.43;100.00;97251.41;5048803;28;20140;-78
2023/07/05 03:16:34;;;;;;;2.80;1.10;;;16.90;99.90;;;16.45;100.00;97236.44;5049213;28;20056;-78
2023/07/05 03:19:01;;;;;;;7.35;1.10;;;16.90;99.90;;;16.49;100.00;97244.91;5049253;28;20045;-78
2023/07/05 03:21:28;;;;;;;3.17;1.08;;;16.90;99.90;;;16.54;100.00;97244.59;5033090;28;20045;-78
2023/07/05 03:23:55;;;;;;;7.50;1.55;;;16.90;99.90;;;16.49;100.00;97235.28;5050034;28;20057;-78
2023/07/05 03:26:22;;;;;;;4.63;1.20;;;17.00;99.90;;;16.56;100.00;97240.91;5051425;28;20049;-78
2023/07/05 03:28:50;;;;;;;3.30;1.20;;;16.90;99.90;;;16.51;100.00;97233.38;5030881;28;20501;-78
2023/07/05 03:31:18;;;;;;;2.70;0.95;;;17.00;99.90;;;16.54;100.00;97242.78;5042907;28;20196;-78
2023/07/05 03:33:45;;;;;;;5.75;1.23;;;16.90;99.90;;;16.50;100.00;97238.72;5047268;28;20576;-77
2023/07/05 03:36:17;;;;;;;3.92;1.35;;;16.90;99.90;;;16.45;100.00;97223.34;5046503;28;20053;-78
2023/07/05 03:38:45;;;;;;;3.90;1.27;;;16.90;99.90;;;16.37;100.00;97237.91;5048578;28;20438;-78
2023/07/05 03:41:22;;;;;;;3.72;1.20;;;16.90;99.90;;;16.36;100.00;97239.72;5048049;28;20053;-78
2023/07/05 03:43:57;;;;;;;4.25;0.93;;;16.90;99.90;;;16.36;100.00;97229.22;5046603;28;20125;-78
2023/07/05 03:46:25;;;;;;;3.03;1.13;;;16.80;99.90;;;16.32;100.00;97248.72;5046207;28;20041;-78
2023/07/05 03:48:52;;;;;;;4.30;1.25;;;16.80;99.90;;;16.26;100.00;97242.16;5042035;28;20059;-78
2023/07/05 03:51:22;;;;;;;7.15;2.00;;;16.80;99.90;;;16.25;100.00;97253.56;5045696;28;20109;-78
2023/07/05 03:53:55;;;;;;;2.85;1.10;;;16.80;99.90;;;16.21;100.00;97246.84;5048275;28;20456;-78
2023/07/05 03:56:23;;;;;;;4.38;1.33;;;16.70;99.90;;;16.14;100.00;97258.72;5046682;28;20080;-78
2023/07/05 03:58:53;;;;;;;3.35;1.30;;;16.60;99.90;;;16.09;100.00;97259.03;5046758;28;20573;-78
2023/07/05 04:01:24;;;;;;;5.35;1.30;;;16.60;99.90;;;16.09;100.00;97256.41;5047328;28;20049;-78
2023/07/05 04:03:55;;;;;;;3.90;1.70;;;16.60;99.90;;;16.08;100.00;97265.22;5042956;28;20045;-78
2023/07/05 04:06:27;;;;;;;7.97;1.67;;;16.60;99.90;;;16.16;100.00;97263.84;5045270;28;20072;-77
2023/07/05 04:08:54;;;;;;;6.45;1.63;;;16.60;99.90;;;16.16;100.00;97274.31;5046277;28;20059;-78
2023/07/05 04:11:22;;;;;;;10.07;2.10;;;16.50;99.90;;;15.87;100.00;97279.78;5047588;28;20063;-79
2023/07/05 04:13:53;;;;;;;8.38;2.10;;;16.50;99.90;;;15.67;100.00;97316.00;5049768;28;20428;-79
2023/07/05 04:16:24;;;;;;;7.65;1.88;;;16.20;99.90;;;15.61;100.00;97336.50;5029181;28;20053;-80
2023/07/05 04:18:55;;;;;;;5.30;2.10;;;16.00;99.90;;;15.25;100.00;97351.88;5026267;28;20046;-80
2023/07/05 04:21:23;;;;;;;5.57;2.47;;;15.70;99.90;;;14.93;100.00;97363.56;5047668;28;20060;-79
2023/07/05 04:23:51;;;;;;;5.63;2.50;;;15.40;99.90;;;14.70;100.00;97341.53;5046811;28;20048;-79
2023/07/05 04:26:23;;;;;;;3.60;1.77;;;15.10;99.90;;;14.54;100.00;97310.28;5044563;28;20049;-79
2023/07/05 04:28:50;;;;;;;4.95;2.28;;;15.00;99.90;;;14.44;100.00;97360.47;5047811;28;20068;-78
2023/07/05 04:31:28;;;;;;;5.07;2.08;;;14.80;99.90;;;14.36;100.00;97343.59;5047717;28;20126;-80
2023/07/05 04:33:57;;;;;;;6.60;2.05;;;14.70;99.90;;;14.22;100.00;97352.25;5047799;28;20154;-79
2023/07/05 04:36:25;;;;;;;4.60;2.53;;;14.60;99.90;;;14.16;100.00;97365.69;5047752;28;20049;-79
2023/07/05 04:38:57;;;;;;;5.25;2.35;;;14.60;99.90;;;14.11;100.00;97365.94;5048411;28;20049;-80
2023/07/05 04:41:25;;;;;;;6.75;2.38;;;14.50;99.90;;;14.00;100.00;97387.50;5048319;28;20056;-80
2023/07/05 04:43:52;;;;;;;4.05;2.13;;;14.40;99.90;;;13.85;100.00;97388.41;5043522;28;20055;-79
2023/07/05 04:46:20;;;;;;;5.20;2.63;;;14.30;99.90;;;13.69;100.00;97374.56;5047213;28;20072;-79
2023/07/05 04:48:48;;;;;;;5.93;2.72;;;14.20;99.90;;;13.52;100.00;97373.75;5047747;28;20049;-79
2023/07/05 04:51:18;;;;;;;4.40;2.55;;;14.10;99.90;;;13.43;100.00;97376.91;5026959;28;20041;-80
2023/07/05 04:53:45;;;;;;;5.53;2.30;;;14.00;99.90;;;13.36;100.00;97389.47;5046456;28;20099;-78
2023/07/05 04:56:14;;;;;;;9.23;2.70;;;13.80;99.90;;;13.29;100.00;97380.28;5031265;28;20045;-79
2023/07/05 04:58:42;;;;;;;10.40;4.00;;;13.80;99.90;;;13.22;100.00;97378.09;5044502;28;20053;-78
2023/07/05 05:01:10;;;;;;;5.68;2.80;;;13.70;99.90;;;13.25;100.00;97381.38;5046283;28;20053;-79
2023/07/05 05:03:38;;;;;;;6.82;3.15;;;13.80;99.90;;;13.26;100.00;97379.63;5048490;28;20075;-79
2023/07/05 05:06:05;;;;;;;10.38;2.88;;;13.80;99.90;;;13.21;100.00;97385.09;5049366;28;20514;-79
2023/07/05 05:08:32;;;;;;;5.28;2.53;;;13.80;99.90;;;13.35;100.00;97389.56;5044076;28;20604;-78
2023/07/05 05:11:02;;;;;;;7.25;3.00;;;13.80;99.90;;;13.34;100.00;97393.94;5047287;28;20064;-78
2023/07/05 05:13:34;;;;;;;6.03;3.42;;;13.80;99.90;;;13.52;100.00;97391.19;5044495;28;20048;-79
2023/07/05 05:16:02;;;;;;;7.88;3.28;;;13.90;99.90;;;13.34;100.00;97395.69;5032110;28;20055;-78
2023/07/05 05:18:32;;;;;;;8.02;3.70;;;13.80;99.90;;;13.29;100.00;97400.31;5029410;28;20049;-78
2023/07/05 05:21:00;;;;;;;7.32;3.28;;;13.80;99.90;;;13.35;100.00;97408.63;5028956;28;20417;-78
2023/07/05 05:23:27;;;;;;;8.10;3.50;;;13.80;99.90;;;13.45;100.00;97410.72;5016855;28;20048;-78
2023/07/05 05:25:55;;;;;;;10.23;3.30;;;13.90;99.90;;;13.82;100.00;97425.06;5047719;28;20057;-78
2023/07/05 05:28:22;;;;;;;6.35;3.38;;;14.00;99.90;;;13.95;100.00;97417.38;5049558;28;20040;-78
2023/07/05 05:30:50;;;;;;;6.07;3.20;;;14.10;99.90;;;13.75;100.00;97408.09;5048794;28;20041;-78
2023/07/05 05:33:18;;;;;;;8.45;3.33;;;14.10;99.90;;;13.89;100.00;97405.56;5031312;28;20053;-78
2023/07/05 05:35:49;;;;;;;6.60;3.55;;;14.00;99.90;;;13.79;100.00;97380.91;5062634;28;20522;-78
2023/07/05 05:38:18;;;;;;;14.48;3.75;;;14.10;99.90;;;13.80;100.00;97386.06;5045876;28;20471;-79
2023/07/05 05:40:50;;;;;;;6.22;3.35;;;14.00;99.90;;;13.81;100.00;97376.47;5042179;28;20045;-78
2023/07/05 05:43:19;;;;;;;8.23;3.55;;;13.90;99.90;;;13.74;100.00;97380.34;5038144;28;20398;-78
2023/07/05 05:45:47;;;;;;;8.02;3.30;;;14.00;99.90;;;14.00;100.00;97376.19;5048644;28;20048;-78
2023/07/05 05:48:14;;;;;;;7.78;3.70;;;14.10;99.90;;;14.00;100.00;97382.28;5052805;28;20037;-78
2023/07/05 05:50:41;;;;;;;11.30;4.68;;;14.20;99.90;;;14.05;100.00;97384.59;5049651;28;20079;-78
2023/07/05 05:53:12;;;;;;;7.70;4.65;;;14.20;99.90;;;13.97;100.00;97389.44;5044323;28;20045;-78
2023/07/05 05:55:40;;;;;;;11.57;4.32;;;14.20;99.90;;;14.10;100.00;97386.94;5046022;28;20470;-78
2023/07/05 05:58:08;;;;;;;19.13;4.75;;;14.30;99.90;;;14.26;100.00;97384.25;5044623;28;20061;-78
2023/07/05 06:00:38;;;;;;;8.65;4.00;;;14.40;99.90;;;14.34;100.00;97371.56;5032151;28;20144;-77
2023/07/05 06:03:06;;;;;;;10.10;3.80;;;14.50;99.90;;;14.63;100.00;97365.41;5048876;28;20655;-78
2023/07/05 06:05:34;;;;;;;8.98;4.20;;;14.50;99.90;;;14.42;100.00;97374.53;5049912;28;20056;-78
2023/07/05 06:08:01;;;;;;;11.18;4.63;;;14.40;99.90;;;14.48;100.00;97355.03;5032566;28;20052;-77
2023/07/05 06:10:29;;;;;;;5.90;3.88;;;14.50;99.90;;;14.45;100.00;97343.00;5047979;28;20090;-75
2023/07/05 06:12:56;;;;;;;8.18;4.68;;;14.40;99.90;;;14.16;100.00;97334.34;5033502;28;20045;-77
2023/07/05 06:15:23;;;;;;;10.38;4.60;;;14.40;99.90;;;14.31;100.00;97356.91;5050081;28;20548;-77
2023/07/05 06:17:52;;;;;;;8.82;4.32;;;14.40;99.90;;;14.52;100.00;97341.69;5045405;28;20073;-77
2023/07/05 06:20:23;;;;;;;5.32;3.45;;;14.50;99.90;;;14.57;100.00;97326.63;5047135;28;20425;-77
2023/07/05 06:22:50;;;;;;;10.00;4.57;;;14.60;99.90;;;14.35;100.00;97337.53;5044035;28;20060;-77
2023/07/05 06:25:20;;;;;;;6.57;4.35;;;14.60;99.90;;;14.15;100.00;97317.03;5044131;28;20761;-77
2023/07/05 06:27:47;;;;;;;8.00;3.55;;;14.50;99.90;;;14.17;100.00;97336.88;5044996;28;20420;-77
2023/07/05 06:30:14;;;;;;;7.97;4.72;;;14.50;99.90;;;14.00;100.00;97332.69;5049519;28;20045;-78
2023/07/05 06:32:41;;;;;;;12.18;4.75;;;14.50;99.90;;;14.00;100.00;97355.31;5048139;28;20421;-77
2023/07/05 06:35:08;;;;;;;8.15;4.85;;;14.30;99.90;;;13.97;100.00;97352.91;5046210;28;20067;-76
2023/07/05 06:37:35;;;;;;;8.52;3.47;;;14.20;99.90;;;14.11;100.00;97342.47;5049043;28;20045;-77
2023/07/05 06:40:03;;;;;;;6.47;4.45;;;14.20;99.90;;;13.96;100.00;97348.63;5048013;28;20545;-77
2023/07/05 06:42:30;;;;;;;8.48;5.15;;;14.30;99.90;;;14.05;100.00;97345.47;5032390;28;20072;-77
2023/07/05 06:44:57;;;;;;;7.28;4.68;;;14.40;99.90;;;14.19;100.00;97358.50;5046625;28;20095;-77
2023/07/05 06:47:27;;;;;;;12.57;4.68;;;14.40;99.90;;;14.05;100.00;97355.03;5048428;28;20439;-77
2023/07/05 06:49:55;;;;;;;8.55;4.60;;;14.50;99.90;;;13.98;100.00;97359.78;5049102;28;20501;-77
2023/07/05 06:52:22;;;;;;;9.35;4.45;;;14.60;99.90;;;13.97;100.00;97385.06;5047541;28;20045;-76
2023/07/05 06:54:49;;;;;;;8.55;4.15;;;14.50;99.90;;;14.26;100.00;97358.16;5046801;28;20054;-77
2023/07/05 06:57:17;;;;;;;11.73;5.28;;;14.50;99.90;;;14.05;100.00;97371.56;5048879;28;20045;-77
2023/07/05 06:59:45;;;;;;;10.35;4.47;;;14.40;99.90;;;13.99;100.00;97404.06;5030995;28;20060;-77
2023/07/05 07:02:12;;;;;;;6.28;3.47;;;14.60;99.90;;;14.23;100.00;97366.97;5047962;28;20126;-77
2023/07/05 07:04:39;;;;;;;7.45;3.28;;;14.60;99.90;;;14.29;100.00;97363.16;5047119;28;20084;-77
2023/07/05 07:07:07;;;;;;;4.55;2.22;;;14.70;99.90;;;14.17;100.00;97378.66;5046452;28;20044;-77
2023/07/05 07:09:34;;;;;;;6.25;2.22;;;14.50;99.90;;;13.81;100.00;97345.97;5036439;28;20061;-77
2023/07/05 07:12:02;;;;;;;9.45;2.75;;;14.40;99.90;;;13.67;100.00;97335.53;5042936;28;20124;-77
2023/07/05 07:14:29;;;;;;;12.40;2.33;;;14.40;99.90;;;14.07;100.00;97346.22;5044792;28;20049;-77
2023/07/05 07:16:56;;;;;;;5.18;2.45;;;14.50;99.90;;;14.19;100.00;97323.75;5045514;28;20159;-77
2023/07/05 07:19:24;;;;;;;10.45;2.15;;;14.60;99.90;;;13.91;100.00;97338.47;5031182;28;20061;-77
2023/07/05 07:21:52;;;;;;;6.38;2.22;;;14.60;99.90;;;14.10;100.00;97377.34;5049589;28;20056;-78
2023/07/05 07:24:19;;;;;;;7.43;2.58;;;14.60;99.90;;;14.19;100.00;97358.50;5046878;28;20473;-77
2023/07/05 07:26:47;;;;;;;5.07;2.58;;;14.60;99.90;;;14.80;100.00;97340.00;5045104;28;20528;-76
2023/07/05 07:29:14;;;;;;;5.80;2.38;;;14.90;99.90;;;14.82;100.00;97340.72;5028620;28;20053;-77
2023/07/05 07:31:41;;;;;;;6.50;3.47;;;15.10;99.90;;;14.82;100.00;97367.72;5047262;28;20049;-77
2023/07/05 07:34:08;;;;;;;9.63;2.80;;;15.20;99.90;;;14.40;100.00;97347.69;5045876;28;20438;-78
2023/07/05 07:36:36;;;;;;;7.25;2.47;;;15.10;99.90;;;15.08;100.00;97390.53;5041455;28;20119;-77
2023/07/05 07:39:03;;;;;;;6.03;2.80;;;15.30;99.90;;;14.79;100.00;97367.91;5049343;28;20056;-77
2023/07/05 07:41:35;;;;;;;5.30;2.60;;;15.30;99.90;;;14.96;100.00;97358.16;5047500;28;20065;-77
2023/07/05 07:44:08;;;;;;;6.18;2.75;;;15.40;99.90;;;15.23;100.00;97369.44;5047244;28;20076;-78
2023/07/05 07:46:38;;;;;;;4.90;2.50;;;15.40;99.90;;;14.73;100.00;97370.06;5045087;28;20539;-77
2023/07/05 07:49:07;;;;;;;6.68;3.10;;;15.30;99.90;;;14.76;100.00;97391.63;5046710;28;20053;-77
2023/07/05 07:51:38;;;;;;;7.38;2.92;;;15.30;99.90;;;15.02;100.00;97389.13;5042849;28;20460;-77
2023/07/05 07:54:11;;;;;;;5.95;3.05;;;15.40;99.90;;;14.85;100.00;97391.03;5046273;28;20595;-77
2023/07/05 07:56:45;;;;;;;10.85;3.17;;;15.50;99.90;;;15.08;100.00;97408.81;5045425;28;20053;-77
2023/07/05 07:59:13;;;;;;;6.68;2.47;;;15.40;99.90;;;15.22;100.00;97408.78;5045750;28;20053;-77
2023/07/05 08:01:41;;;;;;;6.72;3.15;;;15.50;99.90;;;15.30;100.00;97414.34;5043427;28;20463;-77
2023/07/05 08:04:12;;;;;;;7.45;3.00;;;15.50;99.90;;;15.10;100.00;97428.69;5045978;28;20132;-78
2023/07/05 08:06:44;;;;;;;6.35;3.55;;;15.40;99.90;;;14.79;100.00;97412.31;5045901;28;20053;-77
2023/07/05 08:09:28;;;;;;;7.07;2.75;;;15.40;99.90;;;15.61;100.00;97401.91;5046601;28;20072;-78
2023/07/05 08:11:56;;;;;;;8.30;2.65;;;15.50;99.90;;;15.63;100.00;97419.16;5030022;28;20045;-77
2023/07/05 08:14:24;;;;;;;7.97;3.22;;;15.90;99.90;;;15.59;100.00;97406.38;5060262;28;20048;-77
2023/07/05 08:16:51;;;;;;;4.32;2.20;;;16.00;99.90;;;15.85;100.00;97425.63;5031358;28;20099;-78
2023/07/05 08:19:20;;;;;;;4.80;2.63;;;16.30;99.90;;;15.18;100.00;97413.34;5045987;28;20045;-78
2023/07/05 08:21:48;;;;;;;6.10;2.63;;;16.00;99.90;;;15.36;100.00;97421.78;5046331;28;20461;-77
2023/07/05 08:24:17;;;;;;;4.95;2.20;;;16.00;99.90;;;16.10;100.00;97432.66;5036690;28;20474;-77
2023/07/05 08:26:47;;;;;;;7.20;2.60;;;16.20;99.90;;;16.06;100.00;97431.22;5031328;28;20106;-77
2023/07/05 08:29:14;;;;;;;5.45;2.13;;;16.30;99.90;;;16.09;100.00;97431.00;5044128;28;20049;-77
2023/07/05 08:31:42;;;;;;;5.50;2.10;;;16.20;99.90;;;15.77;100.00;97434.00;5044114;28;20052;-77
2023/07/05 08:34:10;;;;;;;5.60;2.60;;;16.00;99.90;;;16.04;100.00;97439.19;5040810;28;20073;-77
2023/07/05 08:36:40;;;;;;;3.70;1.85;;;16.20;99.90;;;16.41;100.00;97441.09;5043680;28;20465;-77
2023/07/05 08:39:08;;;;;;;3.80;1.77;;;16.30;99.90;;;16.13;100.00;97442.13;5044310;28;20079;-77
2023/07/05 08:41:41;;;;;;;4.38;1.88;;;16.10;99.90;;;16.46;100.00;97455.53;5044233;28;20053;-77
2023/07/05 08:44:34;;;;;;;5.78;2.20;;;16.40;99.90;;;16.52;100.00;97460.38;5046749;28;20106;-78
2023/07/05 08:47:07;;;;;;;;;;;16.30;99.90;;;16.20;100.00;97461.72;5048000;28;20463;-77
2023/07/05 08:49:48;;;;;;;;;;;16.20;99.90;;;16.72;100.00;97460.78;5045944;28;20029;-77
2023/07/05 08:52:30;;;;;;;5.22;1.70;;;16.30;99.90;;;17.07;100.00;97468.81;5029696;28;19929;-77
2023/07/05 08:55:03;;;;;;;3.67;1.90;;;16.40;99.90;;;17.96;100.00;97465.03;5045888;28;20040;-77
2023/07/05 08:57:43;;;;;;;6.22;1.92;;;16.80;99.90;;;17.13;100.00;97472.81;5045794;28;20144;-77
2023/07/05 09:00:17;;;;;;;3.03;1.65;;;16.70;99.90;;;17.53;100.00;97451.56;5032194;28;20409;-77
2023/07/05 09:02:44;;;;;;;4.32;2.42;;;17.00;99.90;;;17.63;100.00;97455.22;5042349;28;20045;-78
2023/07/05 09:05:24;;;;;;;4.10;1.83;;;17.50;99.90;;;17.66;100.00;97454.97;5045942;28;20051;-78
2023/07/05 09:08:12;;;;;;;6.70;1.90;;;17.80;99.90;;;16.70;100.00;97481.84;5044157;28;20082;-77
2023/07/05 09:10:53;;;;;;;9.23;2.13;;;17.40;99.90;;;17.92;100.00;97489.81;5041839;28;20065;-77
2023/07/05 09:13:38;;;;;;;7.00;1.98;;;17.60;99.90;;;17.59;100.00;97485.25;5041063;28;20594;-78
2023/07/05 09:16:20;;;;;;;4.15;1.75;;;17.60;99.90;;;17.52;100.00;97492.72;5043651;28;20152;-78
2023/07/05 09:19:06;;;;;;;6.57;2.38;;;17.60;99.90;;;17.55;100.00;97489.03;5046969;28;20052;-78
2023/07/05 09:21:45;;;;;;;4.78;1.80;;;18.20;99.90;;;18.21;100.00;97473.69;5044981;28;20148;-76
2023/07/05 09:24:23;;;;;;;5.70;1.55;;;18.50;99.90;;;18.55;100.00;97482.50;5027542;28;20099;-77
2023/07/05 09:27:17;;;;;;;4.07;1.80;;;18.50;99.90;;;17.16;100.00;97505.84;5043759;28;20060;-78
2023/07/05 09:30:01;;;;;;;6.38;1.35;;;18.00;99.90;;;17.01;100.00;97526.09;5045589;28;20487;-78
2023/07/05 09:32:39;;;;;;;6.65;1.83;;;17.30;99.90;;;16.44;100.00;97517.66;5046792;28;20341;-78
2023/07/05 09:35:18;;;;;;;8.85;1.35;;;17.00;99.90;;;16.34;100.00;97531.50;5044958;28;20511;-78
2023/07/05 09:38:00;;;;;;;6.60;1.40;;;16.90;99.90;;;16.90;100.00;97516.34;5047591;28;20122;-78
2023/07/05 09:40:35;;;;;;;3.40;1.20;;;17.10;99.90;;;17.95;100.00;97517.69;5041784;28;20083;-76
2023/07/05 09:43:13;;;;;;;7.40;1.60;;;17.70;99.90;;;18.62;100.00;97510.94;5042092;28;20048;-78
2023/07/05 09:45:40;;;;;;;4.40;1.23;;;18.50;99.90;;;17.44;100.00;97523.91;5030755;28;20088;-78
2023/07/05 09:48:11;;;;;;;5.40;1.42;;;18.00;99.90;;;17.43;100.00;97524.88;5047408;28;20581;-79
2023/07/05 09:50:49;;;;;;;2.90;1.27;;;17.70;99.90;;;18.13;100.00;97520.72;5043675;28;20045;-78
2023/07/05 09:53:42;;;;;;;5.03;1.60;;;18.00;99.90;;;17.95;100.00;97530.81;5043873;28;20087;-78
2023/07/05 09:56:27;;;;;;;4.88;1.42;;;18.50;99.90;;;18.40;100.00;97517.81;5043645;28;20096;-78
2023/07/05 09:59:14;;;;;;;4.28;1.20;;;18.50;99.90;;;17.76;100.00;97532.09;5038578;28;20575;-77
2023/07/05 10:01:44;;;;;;;5.53;1.85;;;18.00;99.90;;;18.01;100.00;97542.63;5043605;28;20567;-76
2023/07/05 10:04:11;;;;;;;14.52;1.38;;;18.50;99.90;;;18.01;100.00;97540.84;5043679;28;20148;-78
2023/07/05 10:06:42;;;;;;;4.45;1.67;;;18.50;99.90;;;18.92;100.00;97526.19;5030358;28;20045;-77
2023/07/05 10:09:19;;;;;;;4.13;1.30;;;19.20;99.90;;;19.94;100.00;97514.56;5044616;28;20072;-78
2023/07/05 10:11:57;;;;;;;7.35;1.67;;;19.60;99.90;;;19.92;100.00;97521.75;5028606;28;20052;-78
2023/07/05 10:14:33;;;;;;;5.40;1.85;;;20.30;99.90;;;19.41;100.00;97536.34;5014725;28;20075;-76
2023/07/05 10:17:09;;;;;;;5.78;1.80;;;19.40;99.90;;;20.04;100.00;97519.91;5026086;28;20080;-78
2023/07/05 10:19:49;;;;;;;5.85;1.60;;;19.70;99.90;;;19.44;100.00;97525.56;5041717;28;20053;-78
2023/07/05 10:22:32;;;;;;;4.95;1.55;;;19.70;99.90;;;18.22;100.00;97524.44;5026378;28;20049;-79
2023/07/05 10:25:19;;;;;;;5.30;1.70;;;18.80;99.90;;;18.70;100.00;97534.84;5061199;28;20040;-75
2023/07/05 10:27:49;;;;;;;4.10;1.40;;;18.80;99.90;;;18.48;100.00;97510.19;5039067;28;20110;-77
2023/07/05 10:30:21;;;;;;;6.07;1.67;;;19.40;99.90;;;19.24;100.00;97531.56;5020830;28;20041;-76
2023/07/05 10:33:20;;;;;;;3.70;1.35;;;19.70;99.90;;;20.78;100.00;97508.53;5045716;28;20044;-76